Terminal Aerodrome Forecast
Issued by NWS Sioux Falls, SD

Home | Current Version | Previous Version | Graphics & Text | Print | Product List | Glossary Off
Versions: 1 2 3 4 5 6 7 8 9 10 11 12 13 14 15 16 17 18 19

000
FTUS43 KFSD 211723 AAA
TAFSUX
TAF AMD
KSUX 211723Z 2117/2218 03011KT P6SM OVC035
     FM211900 03012KT P6SM VCSH OVC025
     FM212300 03015G23KT P6SM VCSH OVC012
     FM220000 03016G24KT 6SM -RA OVC010
     FM220200 02016G24KT 5SM -RASN OVC015
     FM220600 02019G28KT 4SM -SNRA BLSN OVC015
     FM220800 02021G29KT 2SM -SNRA BLSN OVC015
     FM221000 01021G29KT 1/2SM SN BLSN OVC010=

USA.gov is the U.S. government's official web portal to all federal, state and local government web resources and services.